Bayville, New Jersey
Current Conditions -  °F | °C
As of 9:15 AM on Tuesday 27 Jan 2015 (Local Time) from KMJX Reporting Station
Overcast Overcast  
Wind Chill: -12°   Ceiling: 2000
Heat Index: -4°   Visibility: 2.5mi
Dew Point: -6°   Wind: 18mph
Humidity: 86%   Direction: 340°NNW
Pressure: 29.7"   Gusts: 23mph
Location:  39.91°N, 74.16°W
Report Text: KMJX 271415Z AUTO 34016G20KT 2 1/2SM BKN020 BKN025 OVC031 M04/M06 A2970 RMK AO1
Loading
Personal Weather Stations






























Interactive Weather Map New forecast layout! Learn more

10-Day Weather Forecast

Advertisements
Track Severe Weather on mobile